CSH8 weather

Manicouagan/Lac Louise Seaplane Base
Quebec, Canada

Public forecast

Using degrees Celsius for public forecast. Weather courtesy of forecast.io.

Closest aviation weather report (METAR) to Manicouagan/Lac Louise Seaplane Base

Closest report is Baie Comeau Airport, 94.6 nm (175.3 km) SSE. Retrieved 2020/08/08 06:00 UTC (23 minutes ago):

CYBC 080600Z AUTO 27005KT 9SM BKN110 12/11 A3005 RMK SLP177

Closest aviation forecast (TAF) to Manicouagan/Lac Louise Seaplane Base

Closest forecast is Baie Comeau Airport, 94.6 nm (175.3 km) SSE. Retrieved 2020-08-08 02:00 UTC (4 hours ago):

TAF CYBC 080138Z 0802/0814 23005KT P6SM SKC FM080900 26005KT P6SM SCT050 TEMPO 0809/0814 BKN050 RMK FCST BASED ON AUTO OBS NXT FCST BY 080800Z